Time;durP1;ratioP1;P1;durP2;ratioP2;P2;SDS_P1;SDS_P2;PMS_P1;PMS_P2;Temp;Humidity;BMP_temperature;BMP_pressure;BME280_temperature;BME280_humidity;BME280_pressure;Samples;Min_cycle;Max_cycle;Signal;HPM_P1;HPM_P2
2024/01/29 00:01:34;;;;;;;;;;;;;;;-144.99;74.36;52545.94;5006929;28;19983;-77
2024/01/29 00:04:00;;;;;;;;;;;;;;;-144.99;74.51;52558.16;5004147;28;19968;-77
2024/01/29 00:06:26;;;;;;;;;;;;;;;-144.99;74.00;52519.44;5006265;28;20012;-76
2024/01/29 00:08:54;;;;;;;;;;;;;;;-144.99;74.25;52541.84;5002881;28;19929;-77
2024/01/29 00:11:21;;;;;;;;;;;;;;;-144.99;74.15;52541.84;5001140;28;20012;-76
2024/01/29 00:13:47;;;;;;;;;;;;;;;-144.99;74.06;52531.66;4998987;28;20027;-76
2024/01/29 00:16:14;;;;;;;;;;;;;;;-144.99;73.93;52552.03;5002535;28;20397;-79
2024/01/29 00:18:40;;;;;;;;;;;;;;;-144.99;73.63;52521.47;5002783;28;19992;-78
2024/01/29 00:21:07;;;;;;;;;;;;;;;-144.99;73.71;52570.38;5010373;28;20016;-76
2024/01/29 00:23:33;;;;;;;;;;;;;;;-144.99;73.38;52554.09;5006182;28;19932;-77
2024/01/29 00:26:01;;;;;;;;;;;;;;;-144.99;73.36;52533.69;5005680;28;19936;-76
2024/01/29 00:28:28;;;;;;;;;;;;;;;-144.99;73.77;52572.44;5002172;28;19933;-77
2024/01/29 00:30:54;;;;;;;;;;;;;;;-144.99;73.38;52582.63;4998953;28;19999;-78
2024/01/29 00:33:21;;;;;;;;;;;;;;;-144.99;73.36;52570.38;5004904;28;20028;-79
2024/01/29 00:35:47;;;;;;;;;;;;;;;-144.99;73.57;52513.31;5001429;28;20036;-77
2024/01/29 00:38:14;;;;;;;;;;;;;;;-144.99;72.92;52525.56;5007978;28;19929;-76
2024/01/29 00:40:40;;;;;;;;;;;;;;;-144.99;72.90;52545.94;5007385;28;20008;-76
2024/01/29 00:43:08;;;;;;;;;;;;;;;-144.99;73.25;52570.38;5008429;28;20092;-76
2024/01/29 00:45:34;;;;;;;;;;;;;;;-144.99;73.23;52541.84;5006135;28;20036;-76
2024/01/29 00:48:01;;;;;;;;;;;;;;;-144.99;73.06;52529.63;5004140;28;19991;-75
2024/01/29 00:50:27;;;;;;;;;;;;;;;-144.99;72.88;52521.47;5008164;28;19925;-75
2024/01/29 00:52:54;;;;;;;;;;;;;;;-144.99;72.59;52547.97;5004827;28;19965;-74
2024/01/29 00:55:20;;;;;;;;;;;;;;;-144.99;72.58;52529.63;4658270;28;9999657;-76
2024/01/29 00:57:46;;;;;;;;;;;;;;;-144.99;72.54;52509.25;4997908;28;19929;-75
2024/01/29 01:00:15;;;;;;;;;;;;;;;-144.99;72.40;52541.84;5005776;28;20016;-76
2024/01/29 01:02:41;;;;;;;;;;;;;;;-144.99;72.51;52509.25;5004353;28;20020;-77
2024/01/29 01:05:08;;;;;;;;;;;;;;;-144.99;72.56;52529.63;5004780;28;20016;-75
2024/01/29 01:07:35;;;;;;;;;;;;;;;-144.99;72.59;52529.63;5007231;28;20393;-75
2024/01/29 01:10:03;;;;;;;;;;;;;;;-144.99;72.41;52517.41;5007161;28;19929;-76
2024/01/29 01:12:29;;;;;;;;;;;;;;;-144.99;71.90;52525.56;5005995;28;20325;-76
2024/01/29 01:14:55;;;;;;;;;;;;;;;-144.99;72.22;52529.63;5011279;28;19961;-76
2024/01/29 01:17:23;;;;;;;;;;;;;;;-144.99;72.21;52541.84;5005600;28;20001;-74
2024/01/29 01:19:51;;;;;;;;;;;;;;;-144.99;72.29;52545.94;5005991;28;19976;-75
2024/01/29 01:22:17;;;;;;;;;;;;;;;-144.99;72.27;52545.94;5009263;28;20325;-74
2024/01/29 01:24:44;;;;;;;;;;;;;;;-144.99;71.99;52566.31;5002022;28;20016;-78
2024/01/29 01:27:11;;;;;;;;;;;;;;;-144.99;71.96;52509.25;5012786;28;19933;-75
2024/01/29 01:29:38;;;;;;;;;;;;;;;-144.99;72.13;52582.63;5006061;28;20388;-75
2024/01/29 01:32:05;;;;;;;;;;;;;;;-144.99;72.18;52533.69;5006456;28;19937;-74
2024/01/29 01:34:33;;;;;;;;;;;;;;;-144.99;72.23;52525.56;4998364;28;19929;-79
2024/01/29 01:36:59;;;;;;;;;;;;;;;-144.99;71.71;52566.31;5004161;28;20196;-76
2024/01/29 01:39:25;;;;;;;;;;;;;;;-144.99;71.84;52488.84;5008408;28;19944;-76
2024/01/29 01:41:52;;;;;;;;;;;;;;;-144.99;71.75;52515.34;5007514;28;20022;-75
2024/01/29 01:44:18;;;;;;;;;;;;;;;-144.99;71.98;52545.94;5010806;28;19925;-76
2024/01/29 01:46:45;;;;;;;;;;;;;;;-144.99;72.32;52529.63;5014459;28;19976;-76
2024/01/29 01:49:11;;;;;;;;;;;;;;;-144.99;71.83;52550.00;5013279;28;20019;-75
2024/01/29 01:51:40;;;;;;;;;;;;;;;-144.99;72.12;52566.31;5011317;28;20024;-75
2024/01/29 01:54:08;;;;;;;;;;;;;;;-144.99;72.13;52564.28;5013171;28;19988;-75
2024/01/29 01:56:36;;;;;;;;;;;;;;;-144.99;71.71;52554.09;5017398;28;20016;-77
2024/01/29 01:59:04;;;;;;;;;;;;;;;-144.99;71.83;52554.09;5004788;28;20008;-75
2024/01/29 02:01:31;;;;;;;;;;;;;;;-144.99;71.93;52550.00;5009542;28;20325;-77
2024/01/29 02:03:58;;;;;;;;;;;;;;;-144.99;71.62;52570.38;5010235;28;20734;-76
2024/01/29 02:06:24;;;;;;;;;;;;;;;-144.99;71.80;52539.81;5010180;28;20012;-75
2024/01/29 02:08:52;;;;;;;;;;;;;;;-144.99;72.01;52517.41;5013195;28;20020;-76
2024/01/29 02:11:19;;;;;;;;;;;;;;;-144.99;71.92;52517.41;5015135;28;19957;-73
2024/01/29 02:13:45;;;;;;;;;;;;;;;-144.99;71.67;52562.25;5011301;28;20460;-76
2024/01/29 02:16:11;;;;;;;;;;;;;;;-144.99;71.74;52547.97;5009837;28;19972;-77
2024/01/29 02:18:38;;;;;;;;;;;;;;;-144.99;71.78;52539.81;5005578;28;19929;-75
2024/01/29 02:21:04;;;;;;;;;;;;;;;-144.99;71.64;52523.50;5016273;28;19999;-77
2024/01/29 02:23:32;;;;;;;;;;;;;;;-144.99;71.90;52580.59;5011110;28;20012;-74
2024/01/29 02:25:58;;;;;;;;;;;;;;;-144.99;71.64;52554.09;5006537;28;19926;-78
2024/01/29 02:28:27;;;;;;;;;;;;;;;-144.99;71.88;52519.44;5002686;28;20243;-77
2024/01/29 02:30:54;;;;;;;;;;;;;;;-144.99;71.96;52584.66;5007831;28;20303;-76
2024/01/29 02:33:22;;;;;;;;;;;;;;;-144.99;71.66;52578.53;5010057;28;20216;-78
2024/01/29 02:35:49;;;;;;;;;;;;;;;-144.99;71.91;52554.09;5006717;28;19953;-75
2024/01/29 02:38:15;;;;;;;;;;;;;;;-144.99;71.63;52541.84;5008567;28;20020;-77
2024/01/29 02:40:43;;;;;;;;;;;;;;;-144.99;71.93;52541.84;5009833;28;20063;-76
2024/01/29 02:43:10;;;;;;;;;;;;;;;-144.99;71.49;52558.16;5012579;28;19932;-77
2024/01/29 02:45:36;;;;;;;;;;;;;;;-144.99;71.50;52521.47;5006377;28;20016;-75
2024/01/29 02:48:03;;;;;;;;;;;;;;;-144.99;71.92;52537.78;5010585;28;19973;-76
2024/01/29 02:50:30;;;;;;;;;;;;;;;-144.99;71.85;52570.38;5012624;28;20226;-76
2024/01/29 02:52:56;;;;;;;;;;;;;;;-144.99;71.49;52543.91;5011538;28;20471;-77
2024/01/29 02:55:22;;;;;;;;;;;;;;;-144.99;71.75;52554.09;5009242;28;20020;-76
2024/01/29 02:57:50;;;;;;;;;;;;;;;-144.99;71.62;52562.25;5010603;28;20001;-75
2024/01/29 03:00:17;;;;;;;;;;;;;;;-144.99;71.65;52521.47;5016184;28;20055;-75
2024/01/29 03:02:43;;;;;;;;;;;;;;;-144.99;71.93;52547.97;5013154;28;20016;-76
2024/01/29 03:05:10;;;;;;;;;;;;;;;-144.99;71.65;52529.63;5009207;28;19944;-75
2024/01/29 03:07:36;;;;;;;;;;;;;;;-144.99;71.87;52513.31;5006773;28;20012;-74
2024/01/29 03:10:03;;;;;;;;;;;;;;;-144.99;71.70;52537.78;5011112;28;19976;-76
2024/01/29 03:12:29;;;;;;;;;;;;;;;-144.99;72.15;52558.16;5010407;28;19933;-74
2024/01/29 03:14:57;;;;;;;;;;;;;;;-144.99;72.15;52513.31;5010148;28;20013;-72
2024/01/29 03:17:23;;;;;;;;;;;;;;;-144.99;72.03;52558.16;5005148;28;19933;-76
2024/01/29 03:19:50;;;;;;;;;;;;;;;-144.99;72.15;52527.59;5010596;28;19940;-75
2024/01/29 03:22:16;;;;;;;;;;;;;;;-144.99;71.85;52562.25;5012691;28;20024;-75
2024/01/29 03:24:42;;;;;;;;;;;;;;;-144.99;72.19;52578.53;5014513;28;20017;-75
2024/01/29 03:27:09;;;;;;;;;;;;;;;-144.99;72.13;52558.16;5007869;28;19973;-75
2024/01/29 03:29:35;;;;;;;;;;;;;;;-144.99;72.58;52521.47;5008035;28;20433;-73
2024/01/29 03:32:03;;;;;;;;;;;;;;;-144.99;72.17;52588.75;5009983;28;20024;-75
2024/01/29 03:34:29;;;;;;;;;;;;;;;-144.99;72.11;52552.03;5010818;28;20004;-75
2024/01/29 03:36:56;;;;;;;;;;;;;;;-144.99;72.03;52525.56;5005617;28;20068;-72
2024/01/29 03:39:22;;;;;;;;;;;;;;;-144.99;72.23;52558.16;5008292;28;20467;-74
2024/01/29 03:41:49;;;;;;;;;;;;;;;-144.99;72.55;52537.78;5008128;28;19972;-74
2024/01/29 03:44:16;;;;;;;;;;;;;;;-144.99;72.51;52547.97;5009182;28;19987;-74
2024/01/29 03:46:43;;;;;;;;;;;;;;;-144.99;72.42;52537.78;5007987;28;19930;-75
2024/01/29 03:49:11;;;;;;;;;;;;;;;-144.99;72.82;52556.13;5005154;28;20017;-74
2024/01/29 03:51:37;;;;;;;;;;;;;;;-144.99;72.94;52505.16;5007194;28;19953;-74
2024/01/29 03:54:04;;;;;;;;;;;;;;;-144.99;72.91;52537.78;5001028;28;20132;-74
2024/01/29 03:56:30;;;;;;;;;;;;;;;-144.99;73.17;52533.69;5008111;28;20069;-74
2024/01/29 03:58:56;;;;;;;;;;;;;;;-144.99;73.46;52517.41;5006454;28;19925;-73
2024/01/29 04:01:26;;;;;;;;;;;;;;;-144.99;73.56;52560.19;5004558;28;19968;-75
2024/01/29 04:03:53;;;;;;;;;;;;;;;-144.99;73.76;52550.00;5009618;28;19925;-74
2024/01/29 04:06:20;;;;;;;;;;;;;;;-144.99;73.61;52545.94;5008487;28;20024;-75
2024/01/29 04:08:47;;;;;;;;;;;;;;;-144.99;73.88;52605.03;5006294;28;20115;-75
2024/01/29 04:11:13;;;;;;;;;;;;;;;-144.99;73.98;52537.78;5004957;28;20393;-76
2024/01/29 04:13:40;;;;;;;;;;;;;;;-144.99;73.68;52511.28;5005778;28;19936;-76
2024/01/29 04:16:09;;;;;;;;;;;;;;;-144.99;73.95;52558.16;5008588;28;19933;-76
2024/01/29 04:18:35;;;;;;;;;;;;;;;-144.99;73.68;52554.09;5008393;28;20008;-76
2024/01/29 04:21:05;;;;;;;;;;;;;;;-144.99;74.18;52537.78;5004841;28;19999;-76
2024/01/29 04:23:32;;;;;;;;;;;;;;;-144.99;73.77;52558.16;5004566;28;19926;-76
2024/01/29 04:25:59;;;;;;;;;;;;;;;-144.99;73.84;52529.63;5001393;28;20061;-75
2024/01/29 04:28:25;;;;;;;;;;;;;;;-144.99;73.40;52580.59;5009673;28;19929;-75
2024/01/29 04:30:51;;;;;;;;;;;;;;;-144.99;73.45;52523.50;5006629;28;19943;-76
2024/01/29 04:33:18;;;;;;;;;;;;;;;-144.99;73.59;52558.16;5005146;28;19969;-75
2024/01/29 04:35:44;;;;;;;;;;;;;;;-144.99;73.42;52562.25;5005498;28;19936;-75
2024/01/29 04:38:11;;;;;;;;;;;;;;;-144.99;73.53;52550.00;5009396;28;19929;-75
2024/01/29 04:40:40;;;;;;;;;;;;;;;-144.99;73.19;52550.00;4989588;28;19979;-75
2024/01/29 04:43:07;;;;;;;;;;;;;;;-144.99;72.98;52545.94;5004690;28;19980;-75
2024/01/29 04:45:33;;;;;;;;;;;;;;;-144.99;73.09;52513.31;5006376;28;20385;-76
2024/01/29 04:48:00;;;;;;;;;;;;;;;-144.99;73.28;52533.69;5011500;28;20039;-77
2024/01/29 04:50:26;;;;;;;;;;;;;;;-144.99;72.98;52541.84;5009489;28;19925;-76
2024/01/29 04:52:52;;;;;;;;;;;;;;;-144.99;73.31;52529.63;5007507;28;20455;-74
2024/01/29 04:55:19;;;;;;;;;;;;;;;-144.99;73.25;52552.03;5002226;28;19962;-73
2024/01/29 04:57:47;;;;;;;;;;;;;;;-144.99;73.25;52562.25;5003550;28;20064;-76
2024/01/29 05:00:13;;;;;;;;;;;;;;;-144.99;73.17;52550.00;4998047;28;19943;-76
2024/01/29 05:02:40;;;;;;;;;;;;;;;-144.99;73.12;52507.19;5005537;28;20456;-74
2024/01/29 05:05:06;;;;;;;;;;;;;;;-144.99;72.77;52552.03;4999887;28;19932;-74
2024/01/29 05:07:33;;;;;;;;;;;;;;;-144.99;73.27;52529.63;5002557;28;20373;-74
2024/01/29 05:09:59;;;;;;;;;;;;;;;-144.99;73.15;52488.84;5003632;28;19925;-73
2024/01/29 05:12:26;;;;;;;;;;;;;;;-144.99;73.07;52525.56;5003235;28;20016;-73
2024/01/29 05:14:53;;;;;;;;;;;;;;;-144.99;72.85;52521.47;5003972;28;19999;-73
2024/01/29 05:17:20;;;;;;;;;;;;;;;-144.99;73.00;52497.00;5006750;28;20083;-75
2024/01/29 05:19:47;;;;;;;;;;;;;;;-144.99;73.13;52513.31;5002040;28;19936;-74
2024/01/29 05:22:13;;;;;;;;;;;;;;;-144.99;72.97;52505.16;5007684;28;20658;-74
2024/01/29 05:24:40;;;;;;;;;;;;;;;-144.99;73.36;52545.94;5004773;28;20511;-74
2024/01/29 05:27:06;;;;;;;;;;;;;;;-144.99;73.18;52550.00;5006477;28;20413;-77
2024/01/29 05:29:33;;;;;;;;;;;;;;;-144.99;73.47;52513.31;5009659;28;19992;-76
2024/01/29 05:32:00;;;;;;;;;;;;;;;-144.99;73.64;52521.47;5004306;28;20445;-76
2024/01/29 05:34:27;;;;;;;;;;;;;;;-144.99;74.31;52550.00;5004136;28;20313;-74
2024/01/29 05:36:53;;;;;;;;;;;;;;;-144.99;73.71;52533.69;5006000;28;20008;-76
2024/01/29 05:39:20;;;;;;;;;;;;;;;-144.99;73.94;52566.31;5007186;28;19932;-75
2024/01/29 05:41:46;;;;;;;;;;;;;;;-144.99;73.70;52521.47;5004566;28;20037;-74
2024/01/29 05:44:13;;;;;;;;;;;;;;;-144.99;73.36;52545.94;5007839;28;19929;-75
2024/01/29 05:46:39;;;;;;;;;;;;;;;-144.99;73.70;52566.31;5009400;28;19925;-71
2024/01/29 05:49:07;;;;;;;;;;;;;;;-144.99;73.34;52537.78;5008438;28;19973;-76
2024/01/29 05:51:33;;;;;;;;;;;;;;;-144.99;73.17;52533.69;5009464;28;19953;-76
2024/01/29 05:54:00;;;;;;;;;;;;;;;-144.99;73.85;52507.19;5009118;28;19931;-76
2024/01/29 05:56:26;;;;;;;;;;;;;;;-144.99;73.44;52529.63;5009645;28;19925;-76
2024/01/29 05:58:53;;;;;;;;;;;;;;;-144.99;73.20;52529.63;5006692;28;19940;-77
2024/01/29 06:01:19;;;;;;;;;;;;;;;-144.99;73.20;52517.41;5004089;28;20767;-74
2024/01/29 06:03:46;;;;;;;;;;;;;;;-144.99;73.42;52558.16;5004735;28;20016;-76
2024/01/29 06:06:13;;;;;;;;;;;;;;;-144.99;73.18;52554.09;5004618;28;19973;-75
2024/01/29 06:08:40;;;;;;;;;;;;;;;-144.99;73.04;52513.31;5005092;28;20048;-73
2024/01/29 06:11:06;;;;;;;;;;;;;;;-144.99;73.12;52558.16;5007663;28;19932;-74
2024/01/29 06:13:32;;;;;;;;;;;;;;;-144.99;73.18;52545.94;5008335;28;20353;-74
2024/01/29 06:16:00;;;;;;;;;;;;;;;-144.99;73.18;52537.78;5006183;28;19949;-74
2024/01/29 06:18:26;;;;;;;;;;;;;;;-144.99;72.84;52545.94;5001986;28;20429;-76
2024/01/29 06:20:52;;;;;;;;;;;;;;;-144.99;72.42;52521.47;5004246;28;19975;-76
2024/01/29 06:23:20;;;;;;;;;;;;;;;-144.99;72.35;52529.63;5007442;28;20109;-79
2024/01/29 06:25:47;;;;;;;;;;;;;;;-144.99;72.37;52554.09;5003303;28;20093;-77
2024/01/29 06:28:13;;;;;;;;;;;;;;;-144.99;72.40;52523.50;5006463;28;19945;-79
2024/01/29 06:30:40;;;;;;;;;;;;;;;-144.99;72.31;52562.25;4309065;28;10000713;-76
2024/01/29 06:33:06;;;;;;;;;;;;;;;-144.99;72.42;52554.09;5006100;28;19925;-78
2024/01/29 06:35:32;;;;;;;;;;;;;;;-144.99;72.44;52537.78;5006006;28;19969;-78
2024/01/29 06:37:59;;;;;;;;;;;;;;;-144.99;72.32;52554.09;5007440;28;19933;-77
2024/01/29 06:40:27;;;;;;;;;;;;;;;-144.99;72.51;52525.56;5004885;28;20373;-77
2024/01/29 06:42:54;;;;;;;;;;;;;;;-144.99;72.29;52550.00;5006460;28;19930;-80
2024/01/29 06:45:21;;;;;;;;;;;;;;;-144.99;72.42;52521.47;5006682;28;19944;-79
2024/01/29 06:47:47;;;;;;;;;;;;;;;-144.99;72.44;52550.00;5007453;28;20028;-80
2024/01/29 06:50:14;;;;;;;;;;;;;;;-144.99;72.51;52529.63;5004789;28;20403;-77
2024/01/29 06:52:40;;;;;;;;;;;;;;;-144.99;72.22;52566.31;5004994;28;20387;-77
2024/01/29 06:55:07;;;;;;;;;;;;;;;-144.99;72.23;52521.47;5005836;28;21274;-81
2024/01/29 06:57:35;;;;;;;;;;;;;;;-144.99;72.19;52541.84;5007932;28;19936;-78
2024/01/29 07:00:01;;;;;;;;;;;;;;;-144.99;72.15;52550.00;5006821;28;20035;-78
2024/01/29 07:02:27;;;;;;;;;;;;;;;-144.99;72.18;52490.91;5005052;28;19926;-78
2024/01/29 07:04:54;;;;;;;;;;;;;;;-144.99;72.10;52543.91;5007629;28;19948;-78
2024/01/29 07:07:20;;;;;;;;;;;;;;;-144.99;72.44;52509.25;5004461;28;20016;-78
2024/01/29 07:09:47;;;;;;;;;;;;;;;-144.99;72.12;52541.84;5004606;28;20092;-77
2024/01/29 07:12:15;;;;;;;;;;;;;;;-144.99;72.67;52550.00;5005466;28;20336;-78
2024/01/29 07:14:42;;;;;;;;;;;;;;;-144.99;71.90;52541.84;5004400;28;19933;-77
2024/01/29 07:17:09;;;;;;;;;;;;;;;-144.99;71.96;52525.56;5008668;28;20437;-78
2024/01/29 07:19:35;;;;;;;;;;;;;;;-144.99;72.17;52566.31;5007498;28;19983;-78
2024/01/29 07:22:04;;;;;;;;;;;;;;;-144.99;72.34;52560.19;5006812;28;19941;-77
2024/01/29 07:24:31;;;;;;;;;;;;;;;-144.99;71.90;52517.41;5005158;28;20009;-74
2024/01/29 07:26:58;;;;;;;;;;;;;;;-144.99;71.81;52533.69;5005408;28;20377;-75
2024/01/29 07:29:26;;;;;;;;;;;;;;;-144.99;71.78;52558.16;5007743;28;19947;-77
2024/01/29 07:31:54;;;;;;;;;;;;;;;-144.99;71.86;52529.63;5006774;28;19964;-79
2024/01/29 07:34:20;;;;;;;;;;;;;;;-144.99;71.65;52527.59;4981036;28;19940;-78
2024/01/29 07:36:47;;;;;;;;;;;;;;;-144.99;71.55;52505.16;5005891;28;20061;-79
2024/01/29 07:39:14;;;;;;;;;;;;;;;-144.99;71.49;52525.56;5007661;28;20711;-79
2024/01/29 07:41:40;;;;;;;;;;;;;;;-144.99;71.67;52484.78;5002843;28;20394;-77
2024/01/29 07:44:06;;;;;;;;;;;;;;;-144.99;71.67;52501.09;5006917;28;20319;-79
2024/01/29 07:46:33;;;;;;;;;;;;;;;-144.99;71.53;52511.28;5002478;28;20035;-78
2024/01/29 07:49:03;;;;;;;;;;;;;;;-144.99;71.36;52554.09;5006610;28;19934;-78
2024/01/29 07:51:30;;;;;;;;;;;;;;;-144.99;71.08;52509.25;5001735;28;20028;-78
2024/01/29 07:53:56;;;;;;;;;;;;;;;-144.99;70.94;52507.19;5007561;28;19936;-78
2024/01/29 07:56:22;;;;;;;;;;;;;;;-144.99;70.99;52511.28;4660226;28;10000163;-78
2024/01/29 07:58:49;;;;;;;;;;;;;;;-144.99;71.20;52541.84;5006620;28;19976;-77
2024/01/29 08:01:16;;;;;;;;;;;;;;;-144.99;71.08;52505.16;5005851;28;20448;-77
2024/01/29 08:03:43;;;;;;;;;;;;;;;-144.99;71.03;52484.78;5006382;28;19929;-78
2024/01/29 08:06:11;;;;;;;;;;;;;;;-144.99;70.69;52554.09;5004178;28;20048;-77
2024/01/29 08:08:38;;;;;;;;;;;;;;;-144.99;70.98;52517.41;5005221;28;20456;-78
2024/01/29 08:11:04;;;;;;;;;;;;;;;-144.99;70.98;52539.81;5006946;28;20032;-79
2024/01/29 08:13:30;;;;;;;;;;;;;;;-144.99;71.65;52515.34;5006001;28;20103;-80
2024/01/29 08:15:57;;;;;;;;;;;;;;;-144.99;70.85;52545.94;5004519;28;19960;-76
2024/01/29 08:18:23;;;;;;;;;;;;;;;-144.99;71.18;52554.09;5004071;28;19968;-77
2024/01/29 08:20:50;;;;;;;;;;;;;;;-144.99;71.50;52509.25;5005030;28;20585;-77
2024/01/29 08:23:17;;;;;;;;;;;;;;;-144.99;70.71;52525.56;5005903;28;20015;-78
2024/01/29 08:25:44;;;;;;;;;;;;;;;-144.99;71.26;52554.09;5005415;28;19929;-77
2024/01/29 08:28:11;;;;;;;;;;;;;;;-144.99;70.46;52499.06;5004803;28;19929;-78
2024/01/29 08:30:37;;;;;;;;;;;;;;;-144.99;70.83;52499.06;5005933;28;19948;-77
2024/01/29 08:33:04;;;;;;;;;;;;;;;-144.99;70.02;52545.94;5005619;28;20455;-77
2024/01/29 08:35:31;;;;;;;;;;;;;;;-144.99;69.92;52513.31;5005902;28;20029;-76
2024/01/29 08:37:57;;;;;;;;;;;;;;;-144.99;69.93;52517.41;5004045;28;20466;-78
2024/01/29 08:40:25;;;;;;;;;;;;;;;-144.99;70.30;52525.56;5004463;28;20012;-79
2024/01/29 08:42:51;;;;;;;;;;;;;;;-144.99;70.26;52505.16;5005230;28;19937;-79
2024/01/29 08:45:18;;;;;;;;;;;;;;;-144.99;70.46;52480.72;5003732;28;19937;-78
2024/01/29 08:47:44;;;;;;;;;;;;;;;-144.99;70.11;52533.69;5006120;28;19991;-78
2024/01/29 08:50:11;;;;;;;;;;;;;;;-144.99;70.15;52507.19;5003908;28;20024;-78
2024/01/29 08:52:39;;;;;;;;;;;;;;;-144.99;70.55;52521.47;5010266;28;19936;-78
2024/01/29 08:55:06;;;;;;;;;;;;;;;-144.99;70.13;52517.41;5006199;28;19929;-79
2024/01/29 08:57:34;;;;;;;;;;;;;;;-144.99;69.80;52505.16;5006386;28;20107;-79
2024/01/29 09:00:01;;;;;;;;;;;;;;;-144.99;70.00;52509.25;5002246;28;19971;-79
2024/01/29 09:02:31;;;;;;;;;;;;;;;-144.99;69.43;52505.16;5004535;28;19926;-81
2024/01/29 09:04:58;;;;;;;;;;;;;;;-144.99;68.87;52537.78;5016329;28;19952;-77
2024/01/29 09:07:25;;;;;;;;;;;;;;;-144.99;68.76;52484.78;5003626;28;19989;-79
2024/01/29 09:09:51;;;;;;;;;;;;;;;-144.99;68.41;52492.94;5020687;28;19964;-74
2024/01/29 09:12:18;;;;;;;;;;;;;;;-144.99;68.56;52480.72;5014548;28;19929;-77
2024/01/29 09:14:45;;;;;;;;;;;;;;;-144.99;68.31;52480.72;5015529;28;19969;-77
2024/01/29 09:17:12;;;;;;;;;;;;;;;-144.99;67.94;52474.59;5014928;28;20003;-77
2024/01/29 09:19:38;;;;;;;;;;;;;;;-144.99;67.41;52484.78;5015749;28;19960;-78
2024/01/29 09:22:05;;;;;;;;;;;;;;;-144.99;67.92;52505.16;5002938;28;19972;-76
2024/01/29 09:24:31;;;;;;;;;;;;;;;-144.99;67.68;52460.31;5006172;28;19999;-77
2024/01/29 09:26:58;;;;;;;;;;;;;;;-144.99;67.37;52501.09;5005294;28;20024;-76
2024/01/29 09:29:25;;;;;;;;;;;;;;;-144.99;66.99;52466.44;5008560;28;19925;-76
2024/01/29 09:31:52;;;;;;;;;;;;;;;-144.99;66.65;52476.63;5003346;28;19948;-75
2024/01/29 09:34:24;;;;;;;;;;;;;;;-144.99;66.77;52472.56;5005015;28;20481;-76
2024/01/29 09:36:50;;;;;;;;;;;;;;;-144.99;66.18;52472.56;5004286;28;20024;-77
2024/01/29 09:39:18;;;;;;;;;;;;;;;-144.99;66.20;52472.56;5000474;28;20028;-78
2024/01/29 09:41:46;;;;;;;;;;;;;;;-144.99;66.16;52476.63;5000566;28;19999;-73
2024/01/29 09:44:13;;;;;;;;;;;;;;;-144.99;66.38;52509.25;5002923;28;20416;-78
2024/01/29 09:46:41;;;;;;;;;;;;;;;-144.99;65.59;52470.50;5004738;28;20007;-76
2024/01/29 09:49:09;;;;;;;;;;;;;;;-144.99;65.69;52452.16;5005231;28;20012;-77
2024/01/29 09:51:35;;;;;;;;;;;;;;;-144.99;65.98;52464.41;5004907;28;19937;-78
2024/01/29 09:54:03;;;;;;;;;;;;;;;-144.99;65.33;52472.56;5002859;28;20116;-78
2024/01/29 09:56:29;;;;;;;;;;;;;;;-144.99;64.83;52456.25;5003020;28;20278;-79
2024/01/29 09:58:56;;;;;;;;;;;;;;;-144.99;64.63;52419.56;5005418;28;19929;-78
2024/01/29 10:01:23;;;;;;;;;;;;;;;-144.99;64.37;52435.88;5004500;28;19983;-80
2024/01/29 10:03:49;;;;;;;;;;;;;;;-144.99;63.78;52417.53;5009065;28;20092;-80
2024/01/29 10:06:17;;;;;;;;;;;;;;;-144.99;63.72;52431.78;5008362;28;20072;-80
2024/01/29 10:08:44;;;;;;;;;;;;;;;-144.99;63.29;52403.25;5009871;28;20406;-79
2024/01/29 10:11:11;;;;;;;;;;;;;;;-144.99;63.13;52415.47;5011349;28;19933;-80
2024/01/29 10:13:38;;;;;;;;;;;;;;;-144.99;62.94;52448.09;5014952;28;19948;-79
2024/01/29 10:16:04;;;;;;;;;;;;;;;-144.99;62.79;52403.25;5010399;28;19988;-80
2024/01/29 10:18:31;;;;;;;;;;;;;;;-144.99;62.31;52370.63;5008311;28;19929;-79
2024/01/29 10:21:01;;;;;;;;;;;;;;;-144.99;62.26;52386.94;5008978;28;19941;-76
2024/01/29 10:23:29;;;;;;;;;;;;;;;-144.99;61.41;52395.09;5009792;28;20017;-79
2024/01/29 10:25:56;;;;;;;;;;;;;;;-144.99;61.28;52344.16;5008041;28;19930;-78
2024/01/29 10:28:23;;;;;;;;;;;;;;;-144.99;60.33;52391.03;5005249;28;20426;-79
2024/01/29 10:30:50;;;;;;;;;;;;;;;-144.99;59.98;52362.50;5011312;28;20028;-78
2024/01/29 10:33:16;;;;;;;;;;;;;;;-144.99;59.58;52327.84;5012081;28;19980;-76
2024/01/29 10:35:43;;;;;;;;;;;;;;;-144.99;59.75;52358.41;5005476;28;19945;-79
2024/01/29 10:38:13;;;;;;;;;;;;;;;-144.99;60.26;52358.41;5008506;28;20027;-80
2024/01/29 10:40:42;;;;;;;;;;;;;;;-144.99;60.10;52338.03;5007299;28;20320;-77
2024/01/29 10:43:10;;;;;;;;;;;;;;;-144.99;60.48;52331.91;5003915;28;20109;-79
2024/01/29 10:45:38;;;;;;;;;;;;;;;-144.99;60.50;52386.94;5003467;28;20115;-78
2024/01/29 10:48:08;;;;;;;;;;;;;;;-144.99;61.10;52354.34;4990528;28;19933;-79
2024/01/29 10:50:35;;;;;;;;;;;;;;;-144.99;60.74;52329.88;5007701;28;19933;-79
2024/01/29 10:53:03;;;;;;;;;;;;;;;-144.99;60.96;52370.63;5008093;28;19933;-78
2024/01/29 10:55:30;;;;;;;;;;;;;;;-144.99;60.52;52333.94;5007702;28;19949;-78
2024/01/29 10:58:00;;;;;;;;;;;;;;;-144.99;59.60;52309.50;5006109;28;19936;-81
2024/01/29 11:00:27;;;;;;;;;;;;;;;-144.99;59.61;52293.19;4997764;28;19929;-79
2024/01/29 11:02:54;;;;;;;;;;;;;;;-144.99;59.20;52317.66;5007971;28;20019;-79
2024/01/29 11:05:21;;;;;;;;;;;;;;;-144.99;59.17;52293.19;4999287;28;20048;-79
2024/01/29 11:07:49;;;;;;;;;;;;;;;-144.99;59.17;52264.66;5004786;28;19983;-79
2024/01/29 11:10:18;;;;;;;;;;;;;;;-144.99;59.22;52297.25;5005948;28;19977;-79
2024/01/29 11:12:46;;;;;;;;;;;;;;;-144.99;59.19;52262.63;5008319;28;19929;-79
2024/01/29 11:15:14;;;;;;;;;;;;;;;-144.99;58.54;52272.81;5007318;28;20036;-79
2024/01/29 11:17:40;;;;;;;;;;;;;;;-144.99;58.21;52276.88;5004960;28;20376;-77
2024/01/29 11:20:11;;;;;;;;;;;;;;;-144.99;57.56;52223.88;4990385;28;19936;-81
2024/01/29 11:22:38;;;;;;;;;;;;;;;-144.99;57.10;52199.44;5007892;28;20411;-79
2024/01/29 11:25:08;;;;;;;;;;;;;;;-144.99;57.77;52223.88;4999799;28;20336;-79
2024/01/29 11:27:37;;;;;;;;;;;;;;;-144.99;57.82;52227.97;5003890;28;19933;-80
2024/01/29 11:30:11;;;;;;;;;;;;;;;-144.99;56.85;52195.34;5009528;28;20020;-78
2024/01/29 11:32:40;;;;;;;;;;;;;;;-144.99;56.65;52207.59;5007531;28;19929;-79
2024/01/29 11:35:18;;;;;;;;;;;;;;;-144.99;56.47;52189.25;5006181;28;19944;-78
2024/01/29 11:37:44;;;;;;;;;;;;;;;-144.99;57.10;52191.28;5002776;28;20218;-77
2024/01/29 11:40:29;;;;;;;;;;;;;;;-144.99;57.33;52244.28;5005158;28;20139;-75
2024/01/29 11:42:56;;;;;;;;;;;;;;;-144.99;57.13;52211.66;5006707;28;19929;-77
2024/01/29 11:45:23;;;;;;;;;;;;;;;-144.99;56.70;52232.03;5008299;28;20015;-77
2024/01/29 11:47:51;;;;;;;;;;;;;;;-144.99;56.88;52203.50;5007212;28;19930;-78
2024/01/29 11:50:18;;;;;;;;;;;;;;;-144.99;56.42;52236.13;5004450;28;19930;-77
2024/01/29 11:52:45;;;;;;;;;;;;;;;-144.99;57.02;52203.50;5006366;28;20420;-77
2024/01/29 11:55:12;;;;;;;;;;;;;;;-144.99;57.41;52285.03;5009050;28;19926;-77
2024/01/29 11:57:38;;;;;;;;;;;;;;;-144.99;57.58;52285.03;5002903;28;19949;-78
2024/01/29 12:00:07;;;;;;;;;;;;;;;-144.99;57.52;52268.72;5004320;28;20013;-77
2024/01/29 12:02:33;;;;;;;;;;;;;;;-144.99;57.46;52250.38;5014742;28;19937;-78
2024/01/29 12:05:02;;;;;;;;;;;;;;;-144.99;57.51;52260.56;5027695;28;19964;-82
2024/01/29 12:07:28;;;;;;;;;;;;;;;-144.99;57.50;52254.47;5034746;28;19944;-82
2024/01/29 12:09:55;;;;;;;;;;;;;;;-144.99;56.70;52219.81;5032244;28;19914;-77
2024/01/29 12:12:21;;;;;;;;;;;;;;;-144.99;57.06;52223.88;5012402;28;20362;-76
2024/01/29 12:14:48;;;;;;;;;;;;;;;-144.99;57.44;52254.47;4999318;28;19937;-79
2024/01/29 12:17:15;;;;;;;;;;;;;;;-144.99;57.75;52256.50;5007035;28;20012;-77
2024/01/29 12:19:41;;;;;;;;;;;;;;;-144.99;57.98;52244.28;5002905;28;20032;-73
2024/01/29 12:22:12;;;;;;;;;;;;;;;-144.99;58.23;52280.97;5006836;28;19984;-78
2024/01/29 12:24:38;;;;;;;;;;;;;;;-144.99;58.42;52248.34;5001801;28;19976;-76